Time;durP1;ratioP1;P1;durP2;ratioP2;P2;SDS_P1;SDS_P2;PMS_P1;PMS_P2;Temp;Humidity;BMP_temperature;BMP_pressure;BME280_temperature;BME280_humidity;BME280_pressure;Samples;Min_cycle;Max_cycle;Signal;HPM_P1;HPM_P2
2022/09/14 00:01:45;;;;;;;5.40;2.40;;;;;;;;;;5044328;28;20203;-74
2022/09/14 00:04:11;;;;;;;2.97;2.00;;;;;;;;;;5062860;28;20179;-74
2022/09/14 00:06:37;;;;;;;2.80;1.80;;;;;;;;;;5047185;28;20183;-74
2022/09/14 00:09:05;;;;;;;5.00;2.80;;;;;;;;;;5049972;28;20179;-74
2022/09/14 00:11:31;;;;;;;2.67;1.97;;;;;;;;;;5045461;28;20189;-74
2022/09/14 00:13:58;;;;;;;3.53;2.30;;;;;;;;;;5046074;28;20185;-74
2022/09/14 00:16:36;;;;;;;2.40;2.20;;;;;;;;;;5047550;28;20239;-74
2022/09/14 00:19:04;;;;;;;3.63;2.43;;;;;;;;;;5044671;28;20230;-74
2022/09/14 00:21:30;;;;;;;2.33;1.90;;;;;;;;;;5067460;28;20232;-75
2022/09/14 00:23:55;;;;;;;2.13;2.00;;;;;;;;;;5045614;28;20179;-74
2022/09/14 00:26:22;;;;;;;3.27;2.10;;;;;;;;;;5061298;28;20200;-75
2022/09/14 00:28:51;;;;;;;3.63;2.10;;;;;;;;;;5064220;28;20238;-74
2022/09/14 00:31:17;;;;;;;3.67;2.10;;;;;;;;;;5062056;28;20182;-74
2022/09/14 00:33:43;;;;;;;2.07;1.87;;;;;;;;;;5046941;28;20203;-74
2022/09/14 00:36:28;;;;;;;2.07;1.97;;;;;;;;;;5064947;28;20180;-74
2022/09/14 00:38:55;;;;;;;2.30;2.07;;;;;;;;;;5052291;28;20228;-74
2022/09/14 00:41:22;;;;;;;1.90;1.80;;;;;;;;;;5048361;28;20176;-74
2022/09/14 00:43:58;;;;;;;2.97;2.00;;;;;;;;;;5062812;28;20181;-74
2022/09/14 00:46:24;;;;;;;2.80;2.33;;;;;;;;;;5037930;28;20181;-74
2022/09/14 00:48:49;;;;;;;4.83;2.03;;;;;;;;;;5044637;28;20558;-74
2022/09/14 00:51:16;;;;;;;2.47;2.13;;;;;;;;;;5065380;28;20182;-75
2022/09/14 00:53:42;;;;;;;2.20;2.00;;;;;;;;;;5063189;28;20255;-74
2022/09/14 00:56:07;;;;;;;2.80;1.90;;;;;;;;;;5063857;28;20187;-74
2022/09/14 00:58:32;;;;;;;2.60;1.90;;;;;;;;;;5049186;28;20258;-75
2022/09/14 01:00:57;;;;;;;1.90;1.80;;;;;;;;;;5049682;28;20498;-75
2022/09/14 01:03:23;;;;;;;1.90;1.80;;;;;;;;;;5044226;28;20191;-75
2022/09/14 01:06:07;;;;;;;2.30;2.10;;;;;;;;;;5064148;28;20179;-75
2022/09/14 01:09:01;;;;;;;2.27;2.07;;;;;;;;;;5056777;28;20183;-76
2022/09/14 01:11:38;;;;;;;2.63;2.07;;;;;;;;;;5000620;28;20212;-76
2022/09/14 01:14:21;;;;;;;2.87;2.13;;;;;;;;;;5045212;28;20200;-75
2022/09/14 01:16:47;;;;;;;3.03;2.50;;;;;;;;;;5045505;28;20213;-76
2022/09/14 01:19:22;;;;;;;3.47;2.30;;;;;;;;;;5048947;28;20204;-76
2022/09/14 01:21:49;;;;;;;4.50;3.33;;;;;;;;;;5045395;28;20434;-74
2022/09/14 01:24:30;;;;;;;4.07;3.43;;;;;;;;;;5044540;28;20186;-74
2022/09/14 01:26:58;;;;;;;3.90;3.00;;;;;;;;;;5041186;28;20188;-75
2022/09/14 01:29:35;;;;;;;5.23;3.43;;;;;;;;;;5032241;28;20276;-75
2022/09/14 01:32:05;;;;;;;6.43;4.20;;;;;;;;;;5026675;28;20234;-75
2022/09/14 01:34:39;;;;;;;7.67;3.57;;;;;;;;;;5043176;28;20213;-75
2022/09/14 01:37:11;;;;;;;3.50;3.07;;;;;;;;;;5044818;28;20179;-75
2022/09/14 01:39:38;;;;;;;3.50;2.63;;;;;;;;;;5045682;28;20176;-75
2022/09/14 01:42:05;;;;;;;3.63;1.90;;;;;;;;;;5043732;28;20267;-75
2022/09/14 01:44:33;;;;;;;4.13;2.60;;;;;;;;;;5029532;28;20210;-75
2022/09/14 01:47:09;;;;;;;2.40;2.20;;;;;;;;;;5030854;28;20193;-74
2022/09/14 01:49:46;;;;;;;2.03;1.80;;;;;;;;;;5048230;28;20203;-75
2022/09/14 01:52:17;;;;;;;2.63;2.00;;;;;;;;;;5026917;28;20200;-75
2022/09/14 01:54:44;;;;;;;2.60;2.40;;;;;;;;;;5024327;28;20207;-75
2022/09/14 01:57:13;;;;;;;4.40;2.30;;;;;;;;;;5029644;28;20214;-75
2022/09/14 01:59:40;;;;;;;4.97;2.43;;;;;;;;;;5034538;28;20184;-76
2022/09/14 02:02:27;;;;;;;5.77;2.70;;;;;;;;;;5043309;28;20254;-76
2022/09/14 02:05:04;;;;;;;4.47;2.47;;;;;;;;;;5029894;28;20184;-76
2022/09/14 02:07:29;;;;;;;3.67;2.87;;;;;;;;;;5047311;28;20197;-76
2022/09/14 02:09:55;;;;;;;3.60;2.83;;;;;;;;;;5051569;28;20183;-76
2022/09/14 02:12:21;;;;;;;4.07;2.70;;;;;;;;;;5049227;28;20210;-75
2022/09/14 02:14:47;;;;;;;3.70;3.00;;;;;;;;;;5029528;28;20196;-75
2022/09/14 02:17:12;;;;;;;3.13;2.50;;;;;;;;;;5026755;28;20268;-75
2022/09/14 02:19:42;;;;;;;3.63;2.67;;;;;;;;;;5046070;28;20185;-75
2022/09/14 02:22:07;;;;;;;4.60;2.93;;;;;;;;;;5046670;28;20207;-75
2022/09/14 02:24:32;;;;;;;3.03;2.83;;;;;;;;;;5049605;28;20183;-75
2022/09/14 02:26:58;;;;;;;3.93;3.10;;;;;;;;;;5029501;28;20298;-75
2022/09/14 02:29:23;;;;;;;3.93;2.87;;;;;;;;;;5039792;28;21434;-75
2022/09/14 02:31:52;;;;;;;3.27;2.97;;;;;;;;;;5050315;28;20221;-75
2022/09/14 02:34:22;;;;;;;5.40;3.07;;;;;;;;;;5046037;28;20227;-75
2022/09/14 02:36:57;;;;;;;5.40;3.30;;;;;;;;;;5051777;28;20190;-75
2022/09/14 02:39:32;;;;;;;5.23;3.33;;;;;;;;;;5037372;28;20315;-75
2022/09/14 02:42:04;;;;;;;3.53;3.23;;;;;;;;;;5037591;28;20177;-75
2022/09/14 02:44:42;;;;;;;3.67;3.33;;;;;;;;;;5043110;28;20188;-75
2022/09/14 02:47:07;;;;;;;4.83;3.13;;;;;;;;;;5052936;28;20236;-76
2022/09/14 02:49:42;;;;;;;4.37;2.90;;;;;;;;;;5051135;28;20183;-76
2022/09/14 02:52:10;;;;;;;4.10;3.30;;;;;;;;;;5066368;28;20228;-76
2022/09/14 02:54:37;;;;;;;4.40;3.10;;;;;;;;;;5048117;28;20184;-75
2022/09/14 02:57:03;;;;;;;3.77;3.40;;;;;;;;;;5068746;28;20179;-75
2022/09/14 02:59:28;;;;;;;4.00;3.13;;;;;;;;;;5066023;28;20205;-76
2022/09/14 03:01:54;;;;;;;3.63;3.27;;;;;;;;;;5063649;28;20181;-76
2022/09/14 03:04:20;;;;;;;3.63;3.30;;;;;;;;;;5051366;28;20199;-76
2022/09/14 03:06:45;;;;;;;4.00;3.50;;;;;;;;;;5051414;28;20175;-76
2022/09/14 03:09:10;;;;;;;3.30;3.10;;;;;;;;;;5046139;28;20190;-76
2022/09/14 03:11:35;;;;;;;3.77;3.13;;;;;;;;;;5048114;28;20189;-75
2022/09/14 03:14:01;;;;;;;3.50;3.23;;;;;;;;;;5049208;28;20178;-76
2022/09/14 03:16:26;;;;;;;4.30;3.90;;;;;;;;;;5067788;28;20178;-75
2022/09/14 03:18:51;;;;;;;5.43;3.67;;;;;;;;;;5063852;28;20184;-75
2022/09/14 03:21:16;;;;;;;4.10;3.73;;;;;;;;;;5067926;28;20171;-75
2022/09/14 03:23:51;;;;;;;4.53;3.40;;;;;;;;;;5049952;28;20194;-75
2022/09/14 03:26:17;;;;;;;4.73;3.20;;;;;;;;;;5065904;28;20189;-75
2022/09/14 03:28:43;;;;;;;5.53;3.67;;;;;;;;;;5036885;28;20624;-76
2022/09/14 03:31:09;;;;;;;4.33;3.53;;;;;;;;;;5027577;28;20223;-76
2022/09/14 03:33:34;;;;;;;5.43;3.97;;;;;;;;;;5027791;28;20342;-76
2022/09/14 03:36:07;;;;;;;4.50;4.10;;;;;;;;;;5028812;28;20185;-76
2022/09/14 03:38:32;;;;;;;6.50;4.53;;;;;;;;;;5044850;28;20261;-75
2022/09/14 03:40:58;;;;;;;4.77;4.27;;;;;;;;;;5029002;28;20259;-75
2022/09/14 03:43:23;;;;;;;4.73;3.97;;;;;;;;;;5045623;28;20178;-75
2022/09/14 03:45:48;;;;;;;5.03;4.60;;;;;;;;;;5043586;28;20180;-75
2022/09/14 03:48:14;;;;;;;4.03;3.63;;;;;;;;;;5029951;28;20178;-75
2022/09/14 03:50:40;;;;;;;4.60;4.17;;;;;;;;;;5029763;28;20212;-75
2022/09/14 03:53:05;;;;;;;4.40;4.00;;;;;;;;;;5031208;28;20250;-75
2022/09/14 03:55:30;;;;;;;5.93;4.33;;;;;;;;;;5026268;28;20183;-75
2022/09/14 03:57:55;;;;;;;8.47;4.43;;;;;;;;;;5041846;28;20209;-76
2022/09/14 04:00:21;;;;;;;4.03;3.73;;;;;;;;;;5025926;28;20224;-75
2022/09/14 04:02:46;;;;;;;4.40;4.00;;;;;;;;;;5028269;28;20175;-75
2022/09/14 04:05:12;;;;;;;5.57;5.03;;;;;;;;;;5020547;28;20242;-75
2022/09/14 04:07:37;;;;;;;5.00;4.47;;;;;;;;;;5026686;28;20217;-75
2022/09/14 04:10:04;;;;;;;5.13;4.63;;;;;;;;;;5026220;28;20193;-75
2022/09/14 04:12:32;;;;;;;5.07;4.67;;;;;;;;;;5024818;28;20202;-75
2022/09/14 04:14:58;;;;;;;6.30;5.70;;;;;;;;;;5024025;28;20189;-75
2022/09/14 04:17:24;;;;;;;7.37;5.47;;;;;;;;;;5043227;28;20181;-75
2022/09/14 04:19:49;;;;;;;6.20;5.50;;;;;;;;;;5022683;28;20221;-75
2022/09/14 04:22:14;;;;;;;10.70;6.43;;;;;;;;;;5029108;28;20194;-75
2022/09/14 04:24:39;;;;;;;6.03;5.53;;;;;;;;;;5018924;28;20178;-75
2022/09/14 04:27:05;;;;;;;7.37;6.33;;;;;;;;;;5027979;28;20177;-75
2022/09/14 04:29:30;;;;;;;7.23;6.17;;;;;;;;;;5041808;28;20318;-75
2022/09/14 04:31:56;;;;;;;6.90;6.30;;;;;;;;;;5049491;28;20204;-75
2022/09/14 04:34:21;;;;;;;6.00;5.40;;;;;;;;;;5047435;28;20283;-75
2022/09/14 04:36:46;;;;;;;4.40;4.00;;;;;;;;;;5048030;28;20179;-75
2022/09/14 04:39:12;;;;;;;3.43;3.13;;;;;;;;;;5043255;28;20181;-75
2022/09/14 04:41:37;;;;;;;4.37;3.70;;;;;;;;;;5048504;28;20578;-75
2022/09/14 04:44:03;;;;;;;3.80;3.50;;;;;;;;;;5044612;28;20264;-75
2022/09/14 04:46:29;;;;;;;4.47;3.70;;;;;;;;;;5045404;28;20184;-75
2022/09/14 04:48:54;;;;;;;4.20;3.90;;;;;;;;;;5065323;28;20242;-75
2022/09/14 04:51:21;;;;;;;4.67;4.10;;;;;;;;;;5048881;28;20641;-75
2022/09/14 04:53:48;;;;;;;5.00;3.43;;;;;;;;;;5043377;28;20629;-75
2022/09/14 04:56:14;;;;;;;4.53;4.17;;;;;;;;;;5043671;28;20265;-75
2022/09/14 04:58:43;;;;;;;4.93;3.97;;;;;;;;;;5066633;28;20267;-75
2022/09/14 05:01:10;;;;;;;6.90;4.50;;;;;;;;;;5059104;28;20363;-79
2022/09/14 05:03:39;;;;;;;5.23;4.00;;;;;;;;;;5062011;28;20182;-78
2022/09/14 05:06:05;;;;;;;5.47;3.80;;;;;;;;;;5067622;28;20192;-78
2022/09/14 05:08:31;;;;;;;6.63;4.10;;;;;;;;;;5045586;28;20269;-79
2022/09/14 05:10:57;;;;;;;4.73;4.23;;;;;;;;;;5066658;28;20192;-78
2022/09/14 05:13:22;;;;;;;6.20;4.37;;;;;;;;;;5049629;28;20212;-78
2022/09/14 05:15:49;;;;;;;4.90;4.50;;;;;;;;;;5047208;28;20176;-78
2022/09/14 05:18:14;;;;;;;4.90;4.10;;;;;;;;;;5044981;28;20541;-78
2022/09/14 05:20:39;;;;;;;5.47;4.13;;;;;;;;;;5045792;28;20260;-78
2022/09/14 05:23:04;;;;;;;7.57;3.77;;;;;;;;;;5050241;28;20186;-78
2022/09/14 05:25:29;;;;;;;5.20;4.13;;;;;;;;;;5049123;28;20211;-78
2022/09/14 05:27:55;;;;;;;4.90;4.50;;;;;;;;;;5050187;28;20284;-78
2022/09/14 05:30:20;;;;;;;4.30;3.90;;;;;;;;;;5045924;28;20237;-78
2022/09/14 05:32:45;;;;;;;4.33;3.93;;;;;;;;;;5042595;28;20212;-78
2022/09/14 05:35:10;;;;;;;4.13;3.83;;;;;;;;;;5046058;28;20262;-78
2022/09/14 05:37:35;;;;;;;5.40;4.13;;;;;;;;;;5052462;28;20203;-78
2022/09/14 05:40:01;;;;;;;5.40;3.87;;;;;;;;;;5054028;28;20192;-78
2022/09/14 05:42:45;;;;;;;5.37;4.50;;;;;;;;;;5051183;28;20175;-78
2022/09/14 05:45:10;;;;;;;5.60;4.60;;;;;;;;;;5046247;28;20181;-79
2022/09/14 05:47:35;;;;;;;5.10;4.60;;;;;;;;;;5068773;28;20187;-78
2022/09/14 05:50:00;;;;;;;5.23;4.60;;;;;;;;;;5044798;28;20192;-79
2022/09/14 05:52:28;;;;;;;5.00;4.53;;;;;;;;;;5043793;28;20193;-78
2022/09/14 05:54:53;;;;;;;4.70;4.30;;;;;;;;;;5043685;28;20209;-78
2022/09/14 05:57:18;;;;;;;5.40;4.57;;;;;;;;;;5045094;28;20213;-78
2022/09/14 05:59:43;;;;;;;8.77;6.87;;;;;;;;;;5049530;28;20180;-78
2022/09/14 06:02:09;;;;;;;6.37;5.77;;;;;;;;;;5062076;28;20182;-78
2022/09/14 06:04:35;;;;;;;5.10;4.70;;;;;;;;;;5052536;28;20178;-78
2022/09/14 06:07:00;;;;;;;36.13;24.17;;;;;;;;;;5047627;28;20183;-78
2022/09/14 06:09:25;;;;;;;14.83;7.83;;;;;;;;;;5048165;28;20187;-78
2022/09/14 06:11:50;;;;;;;7.83;5.57;;;;;;;;;;5045999;28;20221;-78
2022/09/14 06:14:18;;;;;;;6.47;4.37;;;;;;;;;;5049296;28;20264;-79
2022/09/14 06:16:43;;;;;;;5.27;4.73;;;;;;;;;;5046792;28;20197;-79
2022/09/14 06:19:10;;;;;;;4.60;4.20;;;;;;;;;;5045451;28;20202;-78
2022/09/14 06:21:35;;;;;;;5.27;4.17;;;;;;;;;;5048815;28;20556;-78
2022/09/14 06:24:00;;;;;;;6.17;4.83;;;;;;;;;;5044620;28;20188;-78
2022/09/14 06:26:26;;;;;;;4.60;4.20;;;;;;;;;;5049589;28;20190;-79
2022/09/14 06:28:52;;;;;;;4.70;4.30;;;;;;;;;;5053862;28;20344;-79
2022/09/14 06:31:21;;;;;;;4.93;4.43;;;;;;;;;;5049559;28;20185;-78
2022/09/14 06:33:46;;;;;;;6.37;4.50;;;;;;;;;;5050682;28;20210;-78
2022/09/14 06:36:13;;;;;;;4.87;4.30;;;;;;;;;;5052630;28;20199;-78
2022/09/14 06:38:39;;;;;;;5.33;3.97;;;;;;;;;;5053777;28;20178;-79
2022/09/14 06:41:05;;;;;;;4.80;3.80;;;;;;;;;;5047499;28;20262;-79
2022/09/14 06:43:32;;;;;;;5.13;4.40;;;;;;;;;;5051393;28;20186;-79
2022/09/14 06:45:58;;;;;;;7.20;4.40;;;;;;;;;;5054066;28;20210;-78
2022/09/14 06:48:23;;;;;;;6.57;4.07;;;;;;;;;;5048423;28;20377;-78
2022/09/14 06:50:48;;;;;;;5.27;3.80;;;;;;;;;;5055087;28;20181;-79
2022/09/14 06:53:14;;;;;;;4.83;4.33;;;;;;;;;;5048082;28;20206;-79
2022/09/14 06:55:39;;;;;;;5.20;3.80;;;;;;;;;;5046981;28;20251;-79
2022/09/14 06:58:06;;;;;;;7.53;3.80;;;;;;;;;;5046547;28;20171;-79
2022/09/14 07:00:31;;;;;;;6.30;3.33;;;;;;;;;;5047940;28;20230;-79
2022/09/14 07:02:56;;;;;;;7.13;3.60;;;;;;;;;;5044238;28;20214;-78
2022/09/14 07:05:22;;;;;;;6.67;3.73;;;;;;;;;;5061916;28;20240;-79
2022/09/14 07:07:51;;;;;;;6.20;3.97;;;;;;;;;;5043559;28;20191;-79
2022/09/14 07:10:16;;;;;;;4.33;3.93;;;;;;;;;;5064414;28;20181;-79
2022/09/14 07:12:41;;;;;;;5.33;4.17;;;;;;;;;;5045092;28;20210;-79
2022/09/14 07:15:07;;;;;;;5.33;3.40;;;;;;;;;;5064046;28;20185;-79
2022/09/14 07:17:32;;;;;;;3.53;3.30;;;;;;;;;;5049497;28;20188;-79
2022/09/14 07:19:57;;;;;;;4.57;3.80;;;;;;;;;;5047204;28;20212;-79
2022/09/14 07:22:23;;;;;;;3.30;3.03;;;;;;;;;;5052190;28;20251;-79
2022/09/14 07:24:51;;;;;;;5.27;3.30;;;;;;;;;;5045486;28;20218;-79
2022/09/14 07:27:16;;;;;;;3.60;3.30;;;;;;;;;;5043728;28;20283;-78
2022/09/14 07:29:41;;;;;;;4.20;3.40;;;;;;;;;;5055754;28;20342;-79
2022/09/14 07:32:07;;;;;;;4.90;2.97;;;;;;;;;;5032769;28;20222;-79
2022/09/14 07:34:32;;;;;;;4.03;3.20;;;;;;;;;;5032738;28;20202;-79
2022/09/14 07:36:57;;;;;;;4.30;3.10;;;;;;;;;;5043484;28;20182;-79
2022/09/14 07:39:22;;;;;;;3.70;3.37;;;;;;;;;;5031424;28;20165;-79
2022/09/14 07:41:50;;;;;;;4.90;3.60;;;;;;;;;;5030475;28;20291;-79
2022/09/14 07:44:16;;;;;;;5.77;3.50;;;;;;;;;;5032382;28;20177;-79
2022/09/14 07:46:42;;;;;;;5.50;3.27;;;;;;;;;;5027554;28;21159;-79
2022/09/14 07:49:08;;;;;;;7.00;3.40;;;;;;;;;;5041007;28;20263;-79
2022/09/14 07:51:35;;;;;;;3.13;2.90;;;;;;;;;;5034042;28;20272;-79
2022/09/14 07:54:00;;;;;;;5.47;3.80;;;;;;;;;;5043156;28;20227;-79
2022/09/14 07:56:26;;;;;;;3.40;3.10;;;;;;;;;;5026496;28;20171;-79
2022/09/14 07:58:52;;;;;;;4.13;3.57;;;;;;;;;;5025504;28;20263;-79
2022/09/14 08:01:17;;;;;;;4.60;3.13;;;;;;;;;;5027533;28;20169;-79
2022/09/14 08:03:43;;;;;;;3.63;3.17;;;;;;;;;;5022731;28;20213;-79
2022/09/14 08:06:10;;;;;;;3.80;3.43;;;;;;;;;;5048566;28;20180;-79
2022/09/14 08:08:36;;;;;;;5.37;3.63;;;;;;;;;;5046602;28;20181;-80
2022/09/14 08:11:06;;;;;;;3.57;3.27;;;;;;;;;;5023446;28;20236;-79
2022/09/14 08:13:32;;;;;;;4.07;3.17;;;;;;;;;;5041878;28;20261;-79
2022/09/14 08:16:00;;;;;;;4.30;2.83;;;;;;;;;;5030736;28;20174;-79
2022/09/14 08:18:26;;;;;;;3.37;3.07;;;;;;;;;;5027835;28;20270;-79
2022/09/14 08:20:51;;;;;;;4.50;3.50;;;;;;;;;;5022689;28;20214;-79
2022/09/14 08:23:16;;;;;;;3.80;3.40;;;;;;;;;;5031891;28;20248;-79
2022/09/14 08:25:41;;;;;;;4.50;2.97;;;;;;;;;;5047030;28;20186;-79
2022/09/14 08:28:07;;;;;;;5.23;3.60;;;;;;;;;;5029419;28;20193;-79
2022/09/14 08:30:32;;;;;;;3.37;3.07;;;;;;;;;;5044118;28;20220;-80
2022/09/14 08:32:57;;;;;;;3.70;3.00;;;;;;;;;;5048815;28;20235;-79
2022/09/14 08:35:22;;;;;;;6.47;3.77;;;;;;;;;;5049304;28;20200;-79
2022/09/14 08:37:48;;;;;;;4.27;2.90;;;;;;;;;;5052956;28;20193;-80
2022/09/14 08:40:13;;;;;;;3.20;2.90;;;;;;;;;;5048580;28;20177;-79
2022/09/14 08:42:39;;;;;;;3.83;2.60;;;;;;;;;;5044752;28;20290;-79
2022/09/14 08:45:06;;;;;;;4.17;3.00;;;;;;;;;;5052456;28;20210;-79
2022/09/14 08:47:35;;;;;;;2.70;2.50;;;;;;;;;;5044080;28;20269;-79
2022/09/14 08:50:05;;;;;;;4.93;2.80;;;;;;;;;;5049032;28;20178;-80
2022/09/14 08:52:33;;;;;;;4.80;2.80;;;;;;;;;;5043372;28;20331;-80
2022/09/14 08:55:00;;;;;;;5.53;3.60;;;;;;;;;;5057429;28;20209;-80
2022/09/14 08:57:33;;;;;;;4.43;3.20;;;;;;;;;;5053865;28;21524;-78
2022/09/14 09:00:16;;;;;;;3.53;3.03;;;;;;;;;;5047914;28;20179;-78
2022/09/14 09:02:53;;;;;;;3.40;3.10;;;;;;;;;;5072259;28;20228;-79
2022/09/14 09:05:21;;;;;;;8.10;3.20;;;;;;;;;;5040005;28;20458;-79
2022/09/14 09:07:51;;;;;;;4.07;3.40;;;;;;;;;;5054290;28;20185;-80
2022/09/14 09:10:16;;;;;;;5.53;3.33;;;;;;;;;;5042670;28;20186;-80
2022/09/14 09:12:44;;;;;;;5.77;3.37;;;;;;;;;;5056534;28;20215;-80
2022/09/14 09:15:20;;;;;;;4.47;3.13;;;;;;;;;;5056521;28;20178;-80
2022/09/14 09:17:47;;;;;;;6.13;3.43;;;;;;;;;;5055644;28;20174;-80
2022/09/14 09:20:12;;;;;;;5.57;3.43;;;;;;;;;;5052696;28;20205;-80
2022/09/14 09:22:42;;;;;;;4.63;2.93;;;;;;;;;;5065658;28;20232;-80
2022/09/14 09:25:33;;;;;;;3.80;3.47;;;;;;;;;;5048404;28;20209;-80
2022/09/14 09:28:08;;;;;;;3.33;3.03;;;;;;;;;;5063151;28;20191;-80
2022/09/14 09:30:33;;;;;;;6.27;3.47;;;;;;;;;;5072877;28;20238;-80
2022/09/14 09:32:58;;;;;;;8.40;3.50;;;;;;;;;;5065469;28;20493;-80
2022/09/14 09:35:24;;;;;;;3.67;3.10;;;;;;;;;;5048381;28;20222;-80
2022/09/14 09:37:49;;;;;;;4.17;3.20;;;;;;;;;;5055599;28;20173;-80
2022/09/14 09:40:17;;;;;;;4.47;3.30;;;;;;;;;;5056147;28;20268;-80
2022/09/14 09:43:01;;;;;;;7.77;4.27;;;;;;;;;;5049550;28;20183;-80
2022/09/14 09:45:44;;;;;;;3.70;3.40;;;;;;;;;;5048445;28;20200;-81
2022/09/14 09:48:09;;;;;;;3.77;3.40;;;;;;;;;;5051761;28;20242;-80
2022/09/14 09:50:35;;;;;;;6.60;3.47;;;;;;;;;;5053791;28;20182;-80
2022/09/14 09:53:03;;;;;;;5.87;3.60;;;;;;;;;;5054001;28;20195;-80
2022/09/14 09:55:33;;;;;;;4.40;3.73;;;;;;;;;;5045969;28;20238;-80
2022/09/14 09:58:18;;;;;;;4.97;3.30;;;;;;;;;;5054822;28;20176;-80
2022/09/14 10:00:53;;;;;;;3.57;2.90;;;;;;;;;;5054651;28;20175;-81
2022/09/14 10:03:24;;;;;;;3.40;3.00;;;;;;;;;;5041820;28;20180;-81
2022/09/14 10:05:58;;;;;;;4.07;3.17;;;;;;;;;;5047630;28;20221;-81
2022/09/14 10:08:24;;;;;;;5.03;3.50;;;;;;;;;;5054092;28;20608;-81
2022/09/14 10:10:49;;;;;;;3.30;2.80;;;;;;;;;;5047245;28;20207;-81
2022/09/14 10:13:21;;;;;;;2.97;2.63;;;;;;;;;;5055150;28;20200;-81
2022/09/14 10:15:49;;;;;;;3.23;2.77;;;;;;;;;;5053634;28;20175;-81
2022/09/14 10:18:18;;;;;;;3.20;2.37;;;;;;;;;;5053443;28;20188;-81
2022/09/14 10:21:04;;;;;;;2.73;2.30;;;;;;;;;;5046443;28;20187;-81
2022/09/14 10:23:32;;;;;;;2.73;2.20;;;;;;;;;;5052597;28;20223;-81
2022/09/14 10:26:09;;;;;;;3.90;2.50;;;;;;;;;;5046099;28;20184;-81
2022/09/14 10:28:36;;;;;;;2.83;2.30;;;;;;;;;;5051337;28;20451;-81
2022/09/14 10:31:07;;;;;;;4.03;2.60;;;;;;;;;;5033378;28;20185;-81
2022/09/14 10:33:34;;;;;;;4.47;2.90;;;;;;;;;;5055560;28;20209;-81
2022/09/14 10:36:11;;;;;;;3.03;2.77;;;;;;;;;;5044737;28;20181;-81
2022/09/14 10:38:52;;;;;;;2.70;2.50;;;;;;;;;;5037671;28;20183;-81
2022/09/14 10:41:36;;;;;;;2.53;2.33;;;;;;;;;;5034492;28;20197;-81
2022/09/14 10:44:21;;;;;;;7.13;2.97;;;;;;;;;;5049160;28;20171;-81
2022/09/14 10:47:05;;;;;;;3.67;2.50;;;;;;;;;;5031970;28;20178;-81
2022/09/14 10:49:38;;;;;;;4.20;2.77;;;;;;;;;;5035031;28;20189;-81
2022/09/14 10:52:26;;;;;;;4.80;2.70;;;;;;;;;;5054124;28;20192;-81
2022/09/14 10:55:10;;;;;;;2.57;2.37;;;;;;;;;;5006079;28;20213;-81
2022/09/14 10:57:51;;;;;;;2.20;2.00;;;;;;;;;;5032740;28;20260;-81
2022/09/14 11:00:19;;;;;;;2.97;2.50;;;;;;;;;;5046205;28;20180;-81
2022/09/14 11:02:45;;;;;;;3.23;2.43;;;;;;;;;;5038154;28;20178;-81
2022/09/14 11:05:29;;;;;;;6.53;2.58;;;;;;;;;;5050881;28;20173;-81
2022/09/14 11:08:06;;;;;;;3.42;2.22;;;;;;;;;;5034564;28;20175;-81
2022/09/14 11:10:35;;;;;;;5.07;2.57;;;;;;;;;;5052175;28;20169;-81
2022/09/14 11:13:00;;;;;;;2.60;2.40;;;;;;;;;;5035054;28;20210;-81
2022/09/14 11:15:45;;;;;;;2.50;2.30;;;;;;;;;;5034775;28;20233;-81
2022/09/14 11:18:21;;;;;;;3.13;2.42;;;;;;;;;;5039247;28;20178;-81
2022/09/14 11:20:49;;;;;;;2.47;2.23;;;;;;;;;;5034719;28;20180;-81
2022/09/14 11:23:23;;;;;;;3.55;2.80;;;;;;;;;;5048378;28;20171;-82
2022/09/14 11:25:53;;;;;;;3.40;2.47;;;;;;;;;;5030902;28;20189;-81
2022/09/14 11:28:28;;;;;;;3.13;2.00;;;;;;;;;;5038872;28;20185;-81
2022/09/14 11:31:05;;;;;;;4.57;2.47;;;;;;;;;;5050472;28;20196;-81
2022/09/14 11:33:49;;;;;;;3.70;2.50;;;;;;;;;;5049371;28;20220;-81
2022/09/14 11:36:18;;;;;;;2.45;2.25;;;;;;;;;;5051893;28;20177;-81
2022/09/14 11:38:47;;;;;;;4.10;2.50;;;;;;;;;;5049046;28;20211;-81
2022/09/14 11:41:18;;;;;;;4.03;2.33;;;;;;;;;;5050062;28;20487;-82
2022/09/14 11:43:59;;;;;;;3.35;2.40;;;;;;;;;;5049637;28;20207;-82
2022/09/14 11:46:29;;;;;;;2.58;2.35;;;;;;;;;;5068158;28;20177;-81
2022/09/14 11:49:26;;;;;;;5.17;2.47;;;;;;;;;;5053851;28;20181;-81
2022/09/14 11:52:19;;;;;;;3.10;2.80;;;;;;;;;;5025541;28;20189;-82
2022/09/14 11:54:45;;;;;;;2.83;2.43;;;;;;;;;;5047124;28;20182;-82
2022/09/14 11:57:15;;;;;;;4.10;2.30;;;;;;;;;;5073598;28;20182;-82
2022/09/14 11:59:40;;;;;;;6.47;2.80;;;;;;;;;;5048484;28;20180;-82
2022/09/14 12:02:21;;;;;;;4.87;2.77;;;;;;;;;;5045673;28;20184;-82
2022/09/14 12:05:08;;;;;;;4.90;2.90;;;;;;;;;;5052383;28;20180;-82
2022/09/14 12:07:41;;;;;;;6.50;2.70;;;;;;;;;;5053720;28;20195;-81
2022/09/14 12:10:12;;;;;;;7.27;2.67;;;;;;;;;;5063249;28;20189;-81
2022/09/14 12:12:39;;;;;;;7.43;3.07;;;;;;;;;;5051194;28;20341;-82
2022/09/14 12:15:11;;;;;;;4.37;2.83;;;;;;;;;;5053046;28;20183;-81
2022/09/14 12:17:36;;;;;;;3.23;2.80;;;;;;;;;;5068500;28;20181;-81
2022/09/14 12:20:20;;;;;;;4.33;2.67;;;;;;;;;;5049749;28;20185;-82
2022/09/14 12:22:47;;;;;;;2.70;2.50;;;;;;;;;;5051085;28;20196;-81
2022/09/14 12:25:17;;;;;;;4.80;2.80;;;;;;;;;;5051489;28;20182;-81
2022/09/14 12:27:44;;;;;;;5.37;2.80;;;;;;;;;;5047187;28;20247;-82
2022/09/14 12:30:28;;;;;;;4.87;2.77;;;;;;;;;;5042366;28;20234;-81
2022/09/14 12:32:53;;;;;;;5.07;3.30;;;;;;;;;;5043687;28;20243;-82
2022/09/14 12:35:31;;;;;;;3.53;3.10;;;;;;;;;;5052218;28;20232;-79
2022/09/14 12:37:56;;;;;;;11.13;10.13;;;;;;;;;;5070538;28;20196;-78
2022/09/14 12:40:30;;;;;;;3.80;2.40;;;;;;;;;;5053053;28;20177;-78
2022/09/14 12:42:55;;;;;;;3.57;2.43;;;;;;;;;;5044971;28;20204;-78
2022/09/14 12:45:39;;;;;;;3.80;2.40;;;;;;;;;;5048999;28;20181;-78
2022/09/14 12:48:06;;;;;;;2.63;2.30;;;;;;;;;;5049838;28;20180;-79
2022/09/14 12:50:33;;;;;;;3.00;2.10;;;;;;;;;;5045822;28;20220;-78
2022/09/14 12:53:14;;;;;;;3.70;2.20;;;;;;;;;;5051269;28;20258;-77
2022/09/14 12:55:47;;;;;;;4.07;2.43;;;;;;;;;;5045240;28;20181;-77
2022/09/14 12:58:32;;;;;;;3.40;2.60;;;;;;;;;;5048247;28;20185;-77
2022/09/14 13:01:08;;;;;;;3.90;2.37;;;;;;;;;;5041981;28;20170;-77
2022/09/14 13:03:33;;;;;;;2.40;2.20;;;;;;;;;;5043803;28;20183;-77
2022/09/14 13:05:58;;;;;;;4.03;2.40;;;;;;;;;;5052071;28;20184;-77
2022/09/14 13:08:23;;;;;;;2.83;2.50;;;;;;;;;;5044014;28;20179;-77
2022/09/14 13:10:50;;;;;;;2.67;1.73;;;;;;;;;;5050069;28;20187;-78
2022/09/14 13:13:29;;;;;;;1.93;1.60;;;;;;;;;;5068681;28;20215;-78
2022/09/14 13:15:59;;;;;;;1.67;1.50;;;;;;;;;;5040972;28;20273;-77
2022/09/14 13:18:32;;;;;;;2.00;1.80;;;;;;;;;;5051002;28;20189;-77
2022/09/14 13:20:58;;;;;;;1.47;1.30;;;;;;;;;;5039065;28;20235;-77
2022/09/14 13:23:37;;;;;;;1.30;1.20;;;;;;;;;;5045233;28;20189;-77
2022/09/14 13:26:21;;;;;;;1.50;1.40;;;;;;;;;;5070220;28;20192;-77
2022/09/14 13:28:47;;;;;;;1.53;1.43;;;;;;;;;;5052794;28;20224;-77
2022/09/14 13:31:15;;;;;;;1.43;1.33;;;;;;;;;;5067118;28;20392;-77
2022/09/14 13:33:45;;;;;;;2.10;1.40;;;;;;;;;;5043821;28;20215;-77
2022/09/14 13:36:15;;;;;;;1.60;1.20;;;;;;;;;;5040744;28;20193;-75
2022/09/14 13:38:41;;;;;;;1.40;1.30;;;;;;;;;;5048527;28;20216;-74
2022/09/14 13:41:13;;;;;;;2.73;1.63;;;;;;;;;;5051922;28;20170;-75
2022/09/14 13:43:39;;;;;;;1.30;1.20;;;;;;;;;;5066662;28;20186;-75
2022/09/14 13:46:06;;;;;;;1.50;1.40;;;;;;;;;;5054392;28;20278;-75
2022/09/14 13:48:32;;;;;;;1.47;1.37;;;;;;;;;;5051664;28;20413;-76
2022/09/14 13:51:00;;;;;;;3.20;1.43;;;;;;;;;;5048356;28;20179;-75
2022/09/14 13:53:35;;;;;;;1.93;1.40;;;;;;;;;;5053011;28;20215;-76
2022/09/14 13:56:22;;;;;;;2.17;1.50;;;;;;;;;;5057212;28;20181;-76
2022/09/14 13:58:49;;;;;;;1.73;1.40;;;;;;;;;;5071520;28;20170;-75
2022/09/14 14:01:27;;;;;;;2.87;1.30;;;;;;;;;;5071904;28;20186;-75
2022/09/14 14:03:52;;;;;;;1.60;1.20;;;;;;;;;;5054065;28;20181;-76
2022/09/14 14:06:20;;;;;;;2.07;1.57;;;;;;;;;;5056241;28;20190;-76
2022/09/14 14:08:51;;;;;;;1.80;1.40;;;;;;;;;;5061696;28;20276;-75
2022/09/14 14:11:24;;;;;;;1.27;1.17;;;;;;;;;;5042660;28;20194;-76
2022/09/14 14:13:50;;;;;;;2.00;1.43;;;;;;;;;;5047954;28;20215;-76
2022/09/14 14:16:22;;;;;;;1.97;1.40;;;;;;;;;;5043141;28;20181;-75
2022/09/14 14:18:49;;;;;;;1.77;1.53;;;;;;;;;;5059973;28;20176;-76
2022/09/14 14:21:17;;;;;;;1.53;1.43;;;;;;;;;;5048631;28;20178;-76
2022/09/14 14:23:43;;;;;;;2.23;1.50;;;;;;;;;;5052005;28;20189;-75
2022/09/14 14:26:13;;;;;;;1.57;1.33;;;;;;;;;;5051039;28;20197;-75
2022/09/14 14:28:39;;;;;;;1.33;1.23;;;;;;;;;;5044405;28;20196;-76
2022/09/14 14:31:08;;;;;;;1.77;1.67;;;;;;;;;;5025897;28;20233;-75
2022/09/14 14:33:35;;;;;;;2.37;1.43;;;;;;;;;;5042134;28;20227;-75
2022/09/14 14:36:07;;;;;;;1.40;1.30;;;;;;;;;;5031230;28;20229;-75
2022/09/14 14:38:32;;;;;;;1.73;1.30;;;;;;;;;;5022877;28;20182;-76
2022/09/14 14:40:57;;;;;;;1.30;1.20;;;;;;;;;;5026434;28;20183;-75
2022/09/14 14:43:24;;;;;;;1.00;1.00;;;;;;;;;;5021936;28;20196;-76
2022/09/14 14:45:52;;;;;;;1.73;1.33;;;;;;;;;;5047998;28;20184;-75
2022/09/14 14:48:17;;;;;;;2.07;1.20;;;;;;;;;;5029210;28;20236;-76
2022/09/14 14:50:45;;;;;;;0.87;0.87;;;;;;;;;;5026377;28;20214;-75
2022/09/14 14:53:10;;;;;;;1.53;1.30;;;;;;;;;;5026459;28;20201;-75
2022/09/14 14:55:36;;;;;;;1.77;1.50;;;;;;;;;;5022612;28;20184;-75